地図

経路データ

SID SEASON NUMBER BASIN SUBBASIN NAME ISO_TIME NATURE LAT LON WMO_WIND WMO_PRES WMO_AGENCY TRACK_TYPE DIST2LAND LANDFALL IFLAG USA_AGENCY USA_ATCF_ID USA_LAT USA_LON USA_RECORD USA_STATUS USA_WIND USA_PRES USA_SSHS USA_R34_NE USA_R34_SE USA_R34_SW USA_R34_NW USA_R50_NE USA_R50_SE USA_R50_SW USA_R50_NW USA_R64_NE USA_R64_SE USA_R64_SW USA_R64_NW USA_POCI USA_ROCI USA_RMW USA_EYE TOKYO_LAT TOKYO_LON TOKYO_GRADE TOKYO_WIND TOKYO_PRES TOKYO_R50_DIR TOKYO_R50_LONG TOKYO_R50_SHORT TOKYO_R30_DIR TOKYO_R30_LONG TOKYO_R30_SHORT TOKYO_LAND CMA_LAT CMA_LON CMA_CAT CMA_WIND CMA_PRES HKO_LAT HKO_LON HKO_CAT HKO_WIND HKO_PRES NEWDELHI_LAT NEWDELHI_LON NEWDELHI_GRADE NEWDELHI_WIND NEWDELHI_PRES NEWDELHI_CI NEWDELHI_DP NEWDELHI_POCI REUNION_LAT REUNION_LON REUNION_TYPE REUNION_WIND REUNION_PRES REUNION_TNUM REUNION_CI REUNION_RMW REUNION_R34_NE REUNION_R34_SE REUNION_R34_SW REUNION_R34_NW REUNION_R50_NE REUNION_R50_SE REUNION_R50_SW REUNION_R50_NW REUNION_R64_NE REUNION_R64_SE REUNION_R64_SW REUNION_R64_NW BOM_LAT BOM_LON BOM_TYPE BOM_WIND BOM_PRES BOM_TNUM BOM_CI BOM_RMW BOM_R34_NE BOM_R34_SE BOM_R34_SW BOM_R34_NW BOM_R50_NE BOM_R50_SE BOM_R50_SW BOM_R50_NW BOM_R64_NE BOM_R64_SE BOM_R64_SW BOM_R64_NW BOM_ROCI BOM_POCI BOM_EYE BOM_POS_METHOD BOM_PRES_METHOD NADI_LAT NADI_LON NADI_CAT NADI_WIND NADI_PRES WELLINGTON_LAT WELLINGTON_LON WELLINGTON_WIND WELLINGTON_PRES DS824_LAT DS824_LON DS824_STAGE DS824_WIND DS824_PRES TD9636_LAT TD9636_LON TD9636_STAGE TD9636_WIND TD9636_PRES TD9635_LAT TD9635_LON TD9635_WIND TD9635_PRES TD9635_ROCI NEUMANN_LAT NEUMANN_LON NEUMANN_CLASS NEUMANN_WIND NEUMANN_PRES MLC_LAT MLC_LON MLC_CLASS MLC_WIND MLC_PRES USA_GUST BOM_GUST BOM_GUST_PER REUNION_GUST REUNION_GUST_PER USA_SEAHGT USA_SEARAD_NE USA_SEARAD_SE USA_SEARAD_SW USA_SEARAD_NW STORM_SPEED STORM_DIR
1969167N15088 1969 36 NI BB NOT_NAMED 1969-06-16 06:00:00 TS 14.8000 88.1000 main 578 571 O________O____ jtwc_io IO031969 14.8000 88.1000 -1 14.8000 88.1000 TC 2 335
1969167N15088 1969 36 NI BB NOT_NAMED 1969-06-16 09:00:00 TS 14.8800 88.0575 main 571 555 P________P____ IO031969 14.8800 88.0575 -1 14.8800 88.0575 TC 2 333
1969167N15088 1969 36 NI BB NOT_NAMED 1969-06-16 12:00:00 TS 15.0000 88.0000 main 555 532 O________O____ jtwc_io IO031969 15.0000 88.0000 -1 15.0000 88.0000 TC 3 336
1969167N15088 1969 36 NI BB NOT_NAMED 1969-06-16 15:00:00 TS 15.1867 87.9133 main 532 508 P________PO___ IO031969 15.1850 87.9150 -1 15.1850 87.9150 TC 15.2000 87.9000 1 5 333
1969167N15088 1969 36 NI BB NOT_NAMED 1969-06-16 18:00:00 TS 15.4019 87.7910 main 508 477 O________OP___ jtwc_io IO031969 15.4000 87.8000 -1 15.4000 87.8000 TC 15.4095 87.7549 1 5 327
1969167N15088 1969 36 NI BB NOT_NAMED 1969-06-16 21:00:00 TS 15.5960 87.6412 main 477 454 P________PP___ IO031969 15.5850 87.6500 -1 15.5850 87.6500 TC 15.6251 87.6178 1 5 326
1969167N15088 1969 36 NI BB NOT_NAMED 1969-06-17 00:00:00 TS 15.8177 87.4989 main 454 423 O________OP___ jtwc_io IO031969 15.8000 87.5000 -1 15.8000 87.5000 TC 25 15.8532 87.4967 1 6 334
1969167N15088 1969 36 NI BB NOT_NAMED 1969-06-17 03:00:00 TS 16.0950 87.3850 main 423 392 P________PO___ IO031969 16.0925 87.3775 -1 16.0925 87.3775 TC 25 16.1000 87.4000 1 6 342
1969167N15088 1969 36 NI BB NOT_NAMED 1969-06-17 06:00:00 TS 16.3896 87.3113 main 392 377 O________OP___ jtwc_io IO031969 16.4000 87.3000 -1 16.4000 87.3000 TC 25 16.3687 87.3340 1 6 351
1969167N15088 1969 36 NI BB NOT_NAMED 1969-06-17 09:00:00 TS 16.6550 87.2891 main 370 356 P________PP___ IO031969 16.6575 87.2849 -1 16.6575 87.2849 TC 25 16.6499 87.2975 1 5 0
1969167N15088 1969 36 NI BB NOT_NAMED 1969-06-17 12:00:00 TS 16.9104 87.2957 main 356 327 O________OP___ jtwc_io IO031969 16.9000 87.3000 -1 16.9000 87.3000 TC 25 16.9312 87.2872 1 5 0
1969167N15088 1969 36 NI BB NOT_NAMED 1969-06-17 15:00:00 TS 17.1667 87.2950 main 327 305 P________PO___ IO031969 17.1500 87.2925 -1 17.1500 87.2925 TC 25 17.2000 87.3000 1 5 3
1969167N15088 1969 36 NI BB NOT_NAMED 1969-06-17 18:00:00 TS 17.4104 87.2974 main 305 284 O________OP___ jtwc_io IO031969 17.4000 87.3000 -1 17.4000 87.3000 TC 25 17.4311 87.2922 1 5 0
1969167N15088 1969 36 NI BB NOT_NAMED 1969-06-17 21:00:00 TS 17.6499 87.3219 main 284 257 P________PP___ IO031969 17.6500 87.3276 -1 17.6500 87.3276 TC 25 17.6497 87.3105 1 5 11
1969167N15088 1969 36 NI BB NOT_NAMED 1969-06-18 00:00:00 TS 17.8895 87.3912 main 257 241 O________OP___ jtwc_io IO031969 17.9000 87.4000 -1 17.9000 87.4000 TC 25 17.8685 87.3736 1 5 20
1969167N15088 1969 36 NI BB NOT_NAMED 1969-06-18 03:00:00 TS 18.1333 87.5084 main 241 225 P________PO___ IO031969 18.1499 87.5126 -1 18.1499 87.5126 TC 25 18.1000 87.5000 1 6 30
1969167N15088 1969 36 NI BB NOT_NAMED 1969-06-18 06:00:00 TS 18.3910 87.6993 main 225 222 O________OP___ jtwc_io IO031969 18.4000 87.7000 -1 18.4000 87.7000 TC 25 18.3729 87.6978 1 7 40
1969167N15088 1969 36 NI BB NOT_NAMED 1969-06-18 09:00:00 TS 18.6525 87.9666 main 222 221 P________PP___ IO031969 18.6500 87.9700 -1 18.6500 87.9700 TC 25 18.6575 87.9596 1 8 47
1969167N15088 1969 36 NI BB NOT_NAMED 1969-06-18 12:00:00 TS 18.9128 88.2889 main 229 221 O________OP___ jtwc_io IO031969 18.9000 88.3000 -1 18.9000 88.3000 TC 25 18.9384 88.2667 1 8 50
1969167N15088 1969 36 NI BB NOT_NAMED 1969-06-18 15:00:00 TS 19.1766 88.6283 main 233 233 P________PO___ IO031969 19.1650 88.6425 -1 19.1650 88.6425 TC 25 19.2000 88.6000 1 8 53
1969167N15088 1969 36 NI BB NOT_NAMED 1969-06-18 18:00:00 TS 19.3978 88.9817 main 246 234 O________OP___ jtwc_io IO031969 19.4000 89.0000 -1 19.4000 89.0000 TC 25 19.3933 88.9452 1 8 61
1969167N15088 1969 36 NI BB NOT_NAMED 1969-06-18 21:00:00 TS 19.5468 89.3463 main 235 218 P________PP___ IO031969 19.5350 89.3653 -1 19.5350 89.3653 TC 25 19.5703 89.3083 1 7 64
1969167N15088 1969 36 NI BB NOT_NAMED 1969-06-19 00:00:00 TS 19.7207 89.6890 main 221 197 O________OP___ jtwc_io IO031969 19.7000 89.7000 -1 19.7000 89.7000 TC 25 19.7621 89.6671 1 8 52
1969167N15088 1969 36 NI BB NOT_NAMED 1969-06-19 03:00:00 TS 20.0133 89.9767 main 200 156 P________PO___ IO031969 20.0199 89.9650 -1 20.0199 89.9650 TC 25 20.0000 90.0000 1 8 38
1969167N15088 1969 36 NI BB NOT_NAMED 1969-06-19 06:00:00 TS 20.3748 90.2263 main 156 124 O________OP___ jtwc_io IO031969 20.4000 90.2000 -1 20.4000 90.2000 TC 25 20.3244 90.2789 1 9 33
1969167N15088 1969 36 NI BB NOT_NAMED 1969-06-19 09:00:00 TS 20.7273 90.4769 main 126 93 P________PP___ IO031969 20.7425 90.4502 -1 20.7425 90.4502 TC 25 20.6971 90.5303 1 9 33
1969167N15088 1969 36 NI BB NOT_NAMED 1969-06-19 12:00:00 TS 21.0988 90.7222 main 93 63 O________OP___ jtwc_io IO031969 21.1000 90.7000 -1 21.1000 90.7000 TC 25 21.0963 90.7665 1 9 31
1969167N15088 1969 36 NI BB NOT_NAMED 1969-06-19 15:00:00 TS 21.5000 90.9667 main 69 53 P________PO___ IO031969 21.5000 90.9501 -1 21.5000 90.9501 TC 25 21.5000 91.0000 1 9 30
1969167N15088 1969 36 NI BB NOT_NAMED 1969-06-19 18:00:00 TS 21.8962 91.2163 main 53 30 O________OP___ jtwc_io IO031969 21.9000 91.2000 -1 21.9000 91.2000 TC 25 21.8906 91.2407 1 9 31
1969167N15088 1969 36 NI BB NOT_NAMED 1969-06-19 21:00:00 TS 22.2649 91.4666 main 30 0 P________PP___ IO031969 22.2626 91.4498 -1 22.2626 91.4498 TC 25 22.2679 91.4890 1 9 33
1969167N15088 1969 36 NI BB NOT_NAMED 1969-06-20 00:00:00 TS 22.6182 91.7214 main 0 0 O________OP___ jtwc_io IO031969 22.6000 91.7000 -1 22.6000 91.7000 TC 25 22.6363 91.7428 1 9 34
1969167N15088 1969 36 NI BB NOT_NAMED 1969-06-20 03:00:00 NR 23.0000 92.0000 main 0 __________O___ IO031969 -1 TC 23.0000 92.0000 1 9 34

IBTrACS Databaseについて

本データベースは、米国NOAAが公開する1842年以降の世界の熱帯低気圧のベストトラックデータアーカイブInternational Best Track Archive for Climate Stewardship (IBTrACS)を、ウェブで閲覧しやすい形式に変換したものです。

最終更新日:2021-10-25